createdAt,value
2023-03-23T00:01:55.392Z,13.34
2023-03-23T00:04:28.050Z,13.09
2023-03-23T00:07:03.756Z,13.24
2023-03-23T00:09:35.634Z,13.33
2023-03-23T00:12:07.306Z,13.23
2023-03-23T00:14:42.269Z,13.15
2023-03-23T00:17:15.459Z,13.09
2023-03-23T00:19:55.182Z,13.35
2023-03-23T00:22:27.151Z,13.13
2023-03-23T00:24:56.877Z,13.16
2023-03-23T00:27:27.313Z,13.28
2023-03-23T00:29:58.122Z,13.30
2023-03-23T00:32:29.717Z,13.20
2023-03-23T00:34:59.943Z,13.16
2023-03-23T00:37:32.039Z,13.23
2023-03-23T00:40:01.608Z,13.36
2023-03-23T00:42:30.961Z,13.24
2023-03-23T00:45:01.239Z,13.24
2023-03-23T00:47:31.669Z,13.22
2023-03-23T00:50:03.285Z,13.22
2023-03-23T00:52:35.290Z,13.42
2023-03-23T00:55:04.660Z,13.54
2023-03-23T00:57:34.032Z,13.39
2023-03-23T01:00:06.260Z,13.23
2023-03-23T01:02:36.891Z,13.38
2023-03-23T01:05:07.521Z,13.29
2023-03-23T01:07:39.765Z,13.20
2023-03-23T01:10:10.609Z,13.14
2023-03-23T01:12:40.824Z,13.29
2023-03-23T01:15:11.269Z,13.43
2023-03-23T01:17:40.696Z,13.46
2023-03-23T01:20:11.940Z,13.06
2023-03-23T01:22:44.425Z,13.08
2023-03-23T01:25:15.534Z,13.11
2023-03-23T01:27:45.535Z,13.00
2023-03-23T01:30:16.628Z,12.91
2023-03-23T01:32:45.999Z,12.76
2023-03-23T01:35:16.228Z,12.61
2023-03-23T01:37:48.571Z,12.70
2023-03-23T01:40:18.945Z,12.84
2023-03-23T01:42:49.773Z,12.53
2023-03-23T01:45:29.382Z,12.57
2023-03-23T01:48:07.043Z,12.60
2023-03-23T01:50:45.853Z,12.52
2023-03-23T01:53:18.106Z,12.45
2023-03-23T01:55:51.353Z,12.61
2023-03-23T01:58:27.381Z,12.49
2023-03-23T02:01:00.178Z,12.50
2023-03-23T02:03:31.973Z,12.68
2023-03-23T02:06:03.963Z,12.57
2023-03-23T02:08:36.741Z,12.51
2023-03-23T02:11:22.038Z,12.60
2023-03-23T02:13:53.118Z,12.56
2023-03-23T02:16:37.533Z,12.50
2023-03-23T02:19:27.528Z,12.42
2023-03-23T02:22:19.367Z,12.50
2023-03-23T02:25:14.008Z,12.50
2023-03-23T02:28:03.929Z,12.31
2023-03-23T02:30:47.937Z,12.35
2023-03-23T02:33:34.205Z,12.39
2023-03-23T02:36:08.930Z,12.33
2023-03-23T02:38:44.785Z,12.42
2023-03-23T02:41:17.284Z,12.53
2023-03-23T02:43:49.983Z,12.60
2023-03-23T02:46:19.959Z,12.41
2023-03-23T02:48:54.803Z,12.48
2023-03-23T02:51:26.780Z,12.47
2023-03-23T02:53:59.074Z,12.37
2023-03-23T02:56:31.791Z,12.61
2023-03-23T02:59:01.341Z,12.47
2023-03-23T03:01:57.659Z,12.65
2023-03-23T03:04:32.700Z,12.57
2023-03-23T03:07:25.770Z,12.61
2023-03-23T03:09:59.640Z,12.76
2023-03-23T03:12:38.215Z,12.67
2023-03-23T03:15:21.914Z,12.71
2023-03-23T03:17:57.577Z,12.82
2023-03-23T03:20:30.852Z,12.75
2023-03-23T03:23:02.726Z,12.70
2023-03-23T03:25:32.476Z,12.58
2023-03-23T03:28:04.229Z,12.71
2023-03-23T03:30:39.079Z,12.68
2023-03-23T03:33:08.622Z,12.56
2023-03-23T03:35:45.874Z,12.57
2023-03-23T03:38:15.714Z,12.52
2023-03-23T03:40:45.162Z,12.58
2023-03-23T03:43:14.556Z,12.64
2023-03-23T03:45:44.464Z,12.71
2023-03-23T03:48:14.712Z,12.49
2023-03-23T03:50:47.594Z,12.50
2023-03-23T03:53:17.105Z,12.44
2023-03-23T03:56:01.089Z,12.70
2023-03-23T03:58:32.537Z,12.60
2023-03-23T04:01:04.680Z,12.48
2023-03-23T04:03:34.234Z,12.55
2023-03-23T04:06:07.397Z,12.55
2023-03-23T04:08:36.948Z,12.57
2023-03-23T04:11:06.833Z,12.50
2023-03-23T04:13:56.157Z,12.55
2023-03-23T04:16:27.290Z,12.47
2023-03-23T04:18:57.222Z,12.39
2023-03-23T04:21:29.966Z,12.36
2023-03-23T04:24:02.105Z,12.36
2023-03-23T04:26:33.685Z,12.32
2023-03-23T04:29:04.065Z,12.39
2023-03-23T04:31:33.459Z,12.33
2023-03-23T04:34:04.998Z,12.33
2023-03-23T04:36:56.563Z,12.33
2023-03-23T04:39:29.946Z,12.41
2023-03-23T04:42:02.311Z,12.33
2023-03-23T04:44:33.853Z,12.32
2023-03-23T04:47:05.131Z,12.49
2023-03-23T04:49:34.491Z,12.47
2023-03-23T04:52:06.784Z,12.38
2023-03-23T04:54:36.402Z,12.38
2023-03-23T04:57:05.820Z,12.37
2023-03-23T04:59:35.199Z,12.35
2023-03-23T05:02:13.850Z,12.42
2023-03-23T05:04:44.469Z,12.39
2023-03-23T05:07:17.014Z,12.43
2023-03-23T05:09:50.860Z,12.55
2023-03-23T05:12:20.302Z,12.38
2023-03-23T05:14:50.086Z,12.34
2023-03-23T05:17:19.832Z,12.41
2023-03-23T05:19:50.170Z,12.41
2023-03-23T05:22:22.117Z,12.38
2023-03-23T05:24:52.715Z,12.45
2023-03-23T05:27:23.029Z,12.38
2023-03-23T05:29:52.775Z,12.46
2023-03-23T05:32:22.453Z,12.35
2023-03-23T05:34:51.824Z,12.35
2023-03-23T05:37:23.748Z,12.29
2023-03-23T05:39:54.353Z,12.37
2023-03-23T05:42:23.946Z,12.31
2023-03-23T05:44:54.190Z,12.26
2023-03-23T05:47:23.586Z,12.35
2023-03-23T05:49:53.002Z,12.47
2023-03-23T05:52:25.273Z,12.29
2023-03-23T05:54:54.713Z,12.34
2023-03-23T05:57:25.633Z,12.39
2023-03-23T05:59:54.990Z,12.39
2023-03-23T06:02:24.424Z,12.36
2023-03-23T06:04:58.306Z,12.23
2023-03-23T06:07:30.598Z,12.20
2023-03-23T06:10:00.125Z,12.32
2023-03-23T06:12:29.561Z,12.50
2023-03-23T06:14:59.152Z,12.42
2023-03-23T06:17:28.916Z,12.40
2023-03-23T06:19:59.176Z,12.26
2023-03-23T06:22:31.173Z,12.32
2023-03-23T06:25:00.578Z,12.35
2023-03-23T06:27:29.990Z,12.41
2023-03-23T06:29:59.466Z,12.30
2023-03-23T06:32:32.152Z,12.32
2023-03-23T06:35:02.313Z,12.38
2023-03-23T06:37:34.354Z,12.43
2023-03-23T06:40:05.357Z,12.28
2023-03-23T06:42:34.658Z,12.42
2023-03-23T06:45:05.140Z,12.39
2023-03-23T06:47:37.271Z,12.40
2023-03-23T06:50:08.798Z,12.31
2023-03-23T06:52:46.578Z,12.38
2023-03-23T06:55:17.100Z,12.45
2023-03-23T06:57:47.802Z,12.37
2023-03-23T07:00:17.844Z,12.47
2023-03-23T07:02:48.014Z,12.49
2023-03-23T07:05:18.041Z,12.46
2023-03-23T07:07:49.981Z,12.58
2023-03-23T07:10:19.553Z,12.55
2023-03-23T07:12:48.854Z,12.51
2023-03-23T07:15:18.503Z,12.48
2023-03-23T07:17:47.813Z,12.65
2023-03-23T07:20:17.728Z,12.60
2023-03-23T07:22:47.079Z,12.57
2023-03-23T07:25:19.538Z,12.54
2023-03-23T07:27:49.697Z,12.52
2023-03-23T07:30:19.518Z,12.59
2023-03-23T07:32:48.925Z,12.57
2023-03-23T07:35:18.548Z,12.72
2023-03-23T07:37:49.968Z,12.56
2023-03-23T07:40:22.552Z,12.69
2023-03-23T07:42:57.121Z,12.61
2023-03-23T07:45:27.722Z,12.56
2023-03-23T07:47:57.042Z,12.68
2023-03-23T07:50:27.361Z,12.66
2023-03-23T07:53:06.081Z,12.55
2023-03-23T07:55:40.014Z,12.59
2023-03-23T07:58:09.623Z,12.64
2023-03-23T08:00:40.379Z,12.52
2023-03-23T08:03:09.956Z,12.53
2023-03-23T08:05:40.039Z,12.48
2023-03-23T08:08:09.673Z,12.58
2023-03-23T08:10:42.030Z,12.56
2023-03-23T08:13:17.190Z,12.68
2023-03-23T08:15:47.153Z,12.75
2023-03-23T08:18:16.544Z,12.74
2023-03-23T08:20:46.062Z,12.90
2023-03-23T08:23:16.125Z,12.96
2023-03-23T08:25:48.618Z,12.99
2023-03-23T08:28:18.050Z,13.04
2023-03-23T08:30:47.755Z,13.12
2023-03-23T08:33:17.062Z,13.01
2023-03-23T08:35:46.833Z,13.04
2023-03-23T08:38:16.260Z,13.14
2023-03-23T08:40:48.678Z,12.99
2023-03-23T08:43:18.024Z,13.10
2023-03-23T08:45:47.578Z,13.11
2023-03-23T08:48:17.671Z,13.10
2023-03-23T08:50:47.900Z,13.04
2023-03-23T08:53:17.540Z,13.12
2023-03-23T08:55:50.127Z,13.19
2023-03-23T08:58:19.702Z,13.18
2023-03-23T09:00:51.292Z,13.23
2023-03-23T09:03:20.933Z,13.16
2023-03-23T09:05:50.276Z,13.26
2023-03-23T09:08:19.748Z,13.28
2023-03-23T09:10:54.529Z,13.30
2023-03-23T09:13:24.037Z,13.23
2023-03-23T09:15:55.492Z,13.15
2023-03-23T09:18:25.801Z,13.14
2023-03-23T09:20:56.488Z,13.16
2023-03-23T09:23:26.061Z,13.12
2023-03-23T09:25:58.224Z,13.16
2023-03-23T09:28:27.562Z,13.02
2023-03-23T09:30:58.509Z,13.06
2023-03-23T09:33:30.077Z,13.03
2023-03-23T09:35:59.488Z,13.05
2023-03-23T09:38:28.848Z,13.01
2023-03-23T09:41:08.126Z,13.01
2023-03-23T09:43:50.653Z,13.05
2023-03-23T09:46:33.638Z,12.96
2023-03-23T09:49:07.850Z,13.12
2023-03-23T09:51:46.106Z,12.89
2023-03-23T09:54:22.653Z,13.03
2023-03-23T09:56:55.516Z,12.84
2023-03-23T09:59:31.672Z,12.98
2023-03-23T10:02:18.501Z,12.86
2023-03-23T10:04:49.595Z,12.89
2023-03-23T10:07:21.738Z,12.86
2023-03-23T10:09:54.279Z,12.82
2023-03-23T10:12:36.101Z,12.89
2023-03-23T10:15:18.577Z,12.79
2023-03-23T10:17:57.593Z,13.02
2023-03-23T10:20:45.682Z,12.97
2023-03-23T10:23:27.757Z,12.91
2023-03-23T10:26:08.236Z,12.91
2023-03-23T10:28:46.849Z,12.93
2023-03-23T10:31:20.277Z,12.91
2023-03-23T10:33:52.845Z,12.95
2023-03-23T10:36:28.002Z,13.06
2023-03-23T10:39:03.554Z,12.99
2023-03-23T10:41:32.981Z,12.96
2023-03-23T10:44:14.004Z,13.03
2023-03-23T10:46:51.323Z,12.85
2023-03-23T10:49:24.514Z,12.90
2023-03-23T10:52:03.458Z,12.96
2023-03-23T10:54:39.842Z,13.04
2023-03-23T10:57:25.671Z,12.97
2023-03-23T11:00:06.731Z,12.83
2023-03-23T11:02:41.913Z,12.89
2023-03-23T11:05:21.669Z,12.89
2023-03-23T11:07:58.124Z,12.85
2023-03-23T11:10:29.156Z,12.94
2023-03-23T11:13:01.763Z,12.92
2023-03-23T11:15:37.428Z,12.81
2023-03-23T11:18:08.960Z,12.98
2023-03-23T11:20:43.139Z,12.95
2023-03-23T11:23:15.201Z,12.79
2023-03-23T11:26:02.385Z,12.87
2023-03-23T11:28:35.606Z,12.75
2023-03-23T11:31:10.413Z,13.03
2023-03-23T11:33:42.372Z,13.01
2023-03-23T11:36:13.741Z,12.97
2023-03-23T11:38:43.086Z,12.92
2023-03-23T11:41:16.323Z,12.90
2023-03-23T11:43:49.928Z,13.00
2023-03-23T11:46:34.020Z,12.92
2023-03-23T11:49:15.617Z,12.97
2023-03-23T11:51:52.931Z,12.85
2023-03-23T11:54:30.650Z,12.98
2023-03-23T11:57:00.830Z,12.96
2023-03-23T11:59:34.285Z,12.94
2023-03-23T12:02:33.466Z,12.85
2023-03-23T12:05:20.794Z,13.11
2023-03-23T12:08:01.646Z,13.08
2023-03-23T12:13:32.349Z,12.92
2023-03-23T12:16:18.604Z,13.10
2023-03-23T12:19:00.926Z,13.06
2023-03-23T12:21:39.191Z,13.04
2023-03-23T12:24:20.285Z,13.30
2023-03-23T12:26:54.460Z,13.34
2023-03-23T12:29:47.368Z,13.42
2023-03-23T12:32:32.673Z,13.56
2023-03-23T12:35:18.605Z,13.40
2023-03-23T12:38:02.078Z,13.29
2023-03-23T12:40:40.462Z,13.23
2023-03-23T12:43:23.100Z,13.24
2023-03-23T12:46:04.861Z,13.26
2023-03-23T12:48:38.792Z,13.45
2023-03-23T12:51:19.108Z,13.44
2023-03-23T12:53:58.502Z,13.50
2023-03-23T12:56:33.570Z,13.36
2023-03-23T12:59:10.788Z,13.42
2023-03-23T13:01:44.693Z,13.28
2023-03-23T13:04:18.053Z,13.49
2023-03-23T13:06:52.386Z,13.40
2023-03-23T13:09:28.033Z,13.56
2023-03-23T13:12:00.644Z,13.41
2023-03-23T13:14:40.345Z,13.42
2023-03-23T13:17:19.408Z,13.43
2023-03-23T13:20:09.008Z,13.55
2023-03-23T13:22:46.624Z,13.54
2023-03-23T13:25:21.368Z,13.60
2023-03-23T13:28:02.204Z,13.76
2023-03-23T13:30:32.800Z,13.84
2023-03-23T13:33:06.913Z,13.87
2023-03-23T13:35:39.697Z,13.82
2023-03-23T13:38:25.184Z,13.75
2023-03-23T13:40:55.859Z,13.74
2023-03-23T13:43:34.120Z,13.79
2023-03-23T13:46:13.380Z,13.96
2023-03-23T13:48:48.214Z,13.96
2023-03-23T13:51:37.608Z,13.87
2023-03-23T13:54:23.065Z,13.77
2023-03-23T13:56:58.388Z,13.87
2023-03-23T13:59:37.583Z,13.94
2023-03-23T14:02:33.178Z,13.86
2023-03-23T14:05:13.697Z,13.67
2023-03-23T14:08:00.696Z,13.86
2023-03-23T14:10:39.410Z,13.84
2023-03-23T14:13:14.676Z,13.75
2023-03-23T14:15:47.538Z,13.68
2023-03-23T14:18:19.251Z,13.90
2023-03-23T14:20:50.577Z,13.90
2023-03-23T14:23:21.543Z,13.85
2023-03-23T14:26:08.449Z,14.01
2023-03-23T14:28:42.250Z,13.84
2023-03-23T14:31:21.702Z,13.91
2023-03-23T14:33:52.381Z,14.10
2023-03-23T14:36:25.139Z,14.06
2023-03-23T14:39:03.990Z,14.07
2023-03-23T14:41:38.718Z,14.04
2023-03-23T14:44:12.570Z,14.18
2023-03-23T14:46:42.396Z,14.23
2023-03-23T14:49:18.710Z,14.16
2023-03-23T14:51:52.814Z,14.06
2023-03-23T14:54:26.404Z,14.17
2023-03-23T14:56:59.133Z,14.12
2023-03-23T14:59:28.462Z,14.36
2023-03-23T15:01:57.866Z,14.28
2023-03-23T15:04:30.206Z,14.30
2023-03-23T15:07:04.276Z,14.25
2023-03-23T15:09:35.099Z,14.33
2023-03-23T15:12:08.298Z,14.31
2023-03-23T15:14:47.451Z,14.31
2023-03-23T15:17:23.301Z,14.25
2023-03-23T15:19:53.712Z,14.31
2023-03-23T15:22:26.786Z,14.26
2023-03-23T15:25:05.323Z,14.30
2023-03-23T15:27:43.265Z,14.20
2023-03-23T15:30:19.445Z,14.28
2023-03-23T15:32:54.557Z,14.13
2023-03-23T15:35:26.856Z,14.20
2023-03-23T15:38:03.488Z,14.15
2023-03-23T15:40:37.733Z,14.12
2023-03-23T15:43:20.642Z,13.93
2023-03-23T15:46:04.320Z,13.92
2023-03-23T15:48:34.821Z,13.83
2023-03-23T15:51:07.353Z,13.99
2023-03-23T15:53:39.144Z,13.69
2023-03-23T15:56:12.500Z,14.00
2023-03-23T15:58:45.340Z,13.98
2023-03-23T16:01:18.470Z,14.10
2023-03-23T16:03:52.004Z,14.06
2023-03-23T16:06:25.381Z,14.03
2023-03-23T16:08:56.018Z,13.92
2023-03-23T16:11:27.275Z,14.17
2023-03-23T16:13:59.415Z,13.94
2023-03-23T16:16:32.540Z,13.92
2023-03-23T16:19:03.383Z,13.97
2023-03-23T16:21:32.752Z,14.03
2023-03-23T16:24:02.102Z,14.01
2023-03-23T16:26:31.447Z,13.76
2023-03-23T16:29:13.952Z,13.82
2023-03-23T16:31:49.730Z,13.89
2023-03-23T16:34:19.164Z,13.95
2023-03-23T16:36:48.533Z,14.00
2023-03-23T16:39:19.228Z,14.32
2023-03-23T16:41:48.522Z,14.23
2023-03-23T16:44:20.540Z,14.34
2023-03-23T16:46:49.831Z,14.29
2023-03-23T16:49:19.141Z,14.32
2023-03-23T16:51:49.321Z,14.20
2023-03-23T16:54:18.651Z,13.73
2023-03-23T16:56:49.294Z,13.41
2023-03-23T16:59:21.259Z,13.45
2023-03-23T17:01:50.599Z,13.35
2023-03-23T17:04:19.949Z,13.25
2023-03-23T17:06:51.842Z,13.30
2023-03-23T17:09:21.261Z,13.28
2023-03-23T17:11:50.860Z,13.47
2023-03-23T17:14:23.124Z,13.45
2023-03-23T17:16:52.529Z,13.36
2023-03-23T17:19:21.896Z,13.38
2023-03-23T17:21:51.586Z,13.19
2023-03-23T17:24:21.806Z,13.12
2023-03-23T17:26:51.465Z,13.10
2023-03-23T17:29:24.142Z,13.39
2023-03-23T17:31:53.728Z,13.43
2023-03-23T17:34:23.130Z,13.59
2023-03-23T17:36:52.444Z,13.61
2023-03-23T17:39:21.888Z,13.79
2023-03-23T17:41:52.502Z,13.67
2023-03-23T17:44:24.487Z,13.67
2023-03-23T17:46:53.853Z,13.46
2023-03-23T17:49:23.191Z,13.44
2023-03-23T17:51:52.728Z,13.40
2023-03-23T17:54:23.185Z,13.20
2023-03-23T17:56:52.787Z,13.36
2023-03-23T17:59:25.111Z,13.10
2023-03-23T18:01:54.752Z,13.02
2023-03-23T18:04:27.005Z,13.09
2023-03-23T18:06:59.241Z,13.09
2023-03-23T18:09:29.311Z,13.17
2023-03-23T18:11:59.296Z,13.23
2023-03-23T18:14:31.220Z,13.24
2023-03-23T18:17:00.740Z,13.20
2023-03-23T18:19:30.186Z,13.28
2023-03-23T18:21:59.530Z,13.22
2023-03-23T18:24:28.872Z,13.47
2023-03-23T18:27:00.254Z,13.29
2023-03-23T18:29:32.196Z,13.36
2023-03-23T18:32:01.535Z,13.23
2023-03-23T18:34:31.403Z,13.18
2023-03-23T18:37:00.737Z,13.21
2023-03-23T18:39:31.773Z,13.32
2023-03-23T18:42:01.219Z,13.12
2023-03-23T18:44:33.206Z,13.09
2023-03-23T18:47:03.718Z,13.24
2023-03-23T18:49:33.620Z,13.17
2023-03-23T18:52:03.180Z,13.09
2023-03-23T18:54:34.855Z,13.05
2023-03-23T18:57:04.629Z,13.19
2023-03-23T18:59:37.206Z,13.15
2023-03-23T19:02:07.380Z,13.11
2023-03-23T19:04:36.840Z,13.17
2023-03-23T19:07:06.175Z,13.17
2023-03-23T19:09:37.660Z,13.17
2023-03-23T19:12:07.425Z,13.27
2023-03-23T19:14:42.398Z,13.20
2023-03-23T19:17:14.310Z,13.16
2023-03-23T19:19:44.873Z,13.22
2023-03-23T19:22:14.700Z,13.08
2023-03-23T19:24:44.000Z,12.96
2023-03-23T19:27:13.580Z,13.07
2023-03-23T19:29:45.587Z,13.06
2023-03-23T19:32:14.932Z,12.93
2023-03-23T19:34:44.388Z,13.03
2023-03-23T19:37:13.719Z,12.99
2023-03-23T19:39:43.353Z,13.14
2023-03-23T19:42:16.921Z,13.12
2023-03-23T19:44:49.143Z,13.19
2023-03-23T19:47:18.517Z,13.22
2023-03-23T19:49:47.873Z,13.13
2023-03-23T19:52:18.831Z,13.11
2023-03-23T19:54:48.583Z,13.15
2023-03-23T19:57:17.919Z,13.24
2023-03-23T19:59:49.895Z,13.11
2023-03-23T20:02:19.536Z,13.15
2023-03-23T20:04:49.580Z,13.16
2023-03-23T20:07:20.546Z,12.98
2023-03-23T20:09:50.702Z,13.16
2023-03-23T20:12:20.108Z,13.13
2023-03-23T20:14:52.637Z,12.95
2023-03-23T20:17:21.962Z,12.92
2023-03-23T20:19:51.695Z,13.10
2023-03-23T20:22:21.054Z,13.10
2023-03-23T20:24:50.385Z,12.97
2023-03-23T20:27:20.402Z,12.91
2023-03-23T20:29:53.607Z,13.05
2023-03-23T20:32:22.928Z,12.78
2023-03-23T20:34:52.251Z,12.60
2023-03-23T20:37:24.135Z,12.55
2023-03-23T20:39:53.468Z,12.66
2023-03-23T20:42:23.154Z,12.66
2023-03-23T20:44:55.090Z,12.73
2023-03-23T20:47:24.453Z,12.83
2023-03-23T20:49:53.880Z,12.61
2023-03-23T20:52:23.953Z,12.69
2023-03-23T20:54:53.482Z,12.91
2023-03-23T20:57:23.182Z,12.70
2023-03-23T20:59:55.638Z,12.76
2023-03-23T21:02:29.933Z,12.94
2023-03-23T21:05:04.398Z,12.73
2023-03-23T21:07:33.815Z,12.73
2023-03-23T21:10:03.121Z,12.75
2023-03-23T21:12:32.466Z,12.64
2023-03-23T21:15:05.742Z,12.73
2023-03-23T21:17:35.112Z,12.69
2023-03-23T21:20:07.888Z,12.64
2023-03-23T21:22:37.693Z,12.66
2023-03-23T21:25:08.685Z,12.81
2023-03-23T21:27:38.207Z,12.83
2023-03-23T21:30:13.108Z,12.84
2023-03-23T21:32:42.466Z,12.69
2023-03-23T21:35:11.823Z,12.75
2023-03-23T21:37:41.816Z,12.69
2023-03-23T21:40:17.715Z,12.77
2023-03-23T21:42:49.084Z,12.81
2023-03-23T21:45:21.979Z,12.76
2023-03-23T21:47:57.928Z,12.83
2023-03-23T21:50:27.859Z,12.78
2023-03-23T21:52:57.142Z,12.80
2023-03-23T21:55:29.831Z,12.74
2023-03-23T21:57:59.957Z,12.85
2023-03-23T22:00:32.976Z,12.57
2023-03-23T22:03:08.658Z,12.66
2023-03-23T22:05:42.211Z,12.60
2023-03-23T22:08:11.975Z,12.66
2023-03-23T22:10:43.634Z,12.58
2023-03-23T22:13:31.419Z,12.56
2023-03-23T22:16:05.661Z,12.62
2023-03-23T22:18:35.689Z,12.65
2023-03-23T22:21:05.021Z,12.67
2023-03-23T22:23:34.649Z,12.44
2023-03-23T22:26:04.454Z,12.51
2023-03-23T22:28:37.215Z,12.47
2023-03-23T22:31:12.124Z,12.26
2023-03-23T22:33:42.499Z,12.56
2023-03-23T22:36:13.088Z,12.45
2023-03-23T22:38:44.946Z,12.40
2023-03-23T22:41:19.534Z,12.51
2023-03-23T22:43:50.104Z,12.49
2023-03-23T22:46:22.612Z,12.53
2023-03-23T22:48:52.300Z,12.29
2023-03-23T22:51:22.715Z,12.25
2023-03-23T22:53:52.554Z,12.18
2023-03-23T22:56:22.689Z,12.18
2023-03-23T22:58:51.996Z,12.15
2023-03-23T23:01:25.971Z,12.18
2023-03-23T23:03:56.080Z,12.17
2023-03-23T23:06:25.872Z,12.14
2023-03-23T23:08:55.209Z,12.19
2023-03-23T23:11:26.273Z,12.16
2023-03-23T23:13:56.384Z,12.20
2023-03-23T23:16:28.590Z,12.10
2023-03-23T23:18:57.964Z,12.09
2023-03-23T23:21:29.014Z,12.09
2023-03-23T23:23:58.514Z,12.04
2023-03-23T23:26:27.969Z,12.02
2023-03-23T23:28:57.337Z,12.05
2023-03-23T23:31:33.785Z,12.03
2023-03-23T23:34:05.041Z,12.08
2023-03-23T23:36:35.417Z,12.12
2023-03-23T23:39:06.794Z,12.04
2023-03-23T23:41:36.820Z,11.97
2023-03-23T23:44:06.448Z,12.10
2023-03-23T23:46:38.655Z,11.99
2023-03-23T23:49:08.127Z,12.07
2023-03-23T23:51:37.719Z,12.00
2023-03-23T23:54:07.302Z,11.97
2023-03-23T23:56:36.772Z,12.13
2023-03-23T23:59:06.132Z,12.10
